sensor_id;sensor_type;location;lat;lon;timestamp;P1;durP1;ratioP1;P2;durP2;ratioP2
59828;SDS011;45708;51.848;107.620;2022-11-15T00:04:46;14.20;;;8.40;;
59828;SDS011;45708;51.848;107.620;2022-11-15T00:09:47;12.70;;;5.37;;
59828;SDS011;45708;51.848;107.620;2022-11-15T00:14:48;13.87;;;8.47;;
59828;SDS011;45708;51.848;107.620;2022-11-15T00:19:49;14.33;;;6.47;;
59828;SDS011;45708;51.848;107.620;2022-11-15T00:24:50;25.67;;;8.33;;
59828;SDS011;45708;51.848;107.620;2022-11-15T00:29:51;12.37;;;5.23;;
59828;SDS011;45708;51.848;107.620;2022-11-15T00:34:51;12.83;;;5.90;;
59828;SDS011;45708;51.848;107.620;2022-11-15T00:39:52;8.83;;;7.70;;
59828;SDS011;45708;51.848;107.620;2022-11-15T00:44:53;17.80;;;12.30;;
59828;SDS011;45708;51.848;107.620;2022-11-15T00:49:54;9.73;;;6.67;;
59828;SDS011;45708;51.848;107.620;2022-11-15T00:54:55;28.77;;;10.50;;
59828;SDS011;45708;51.848;107.620;2022-11-15T00:59:56;25.93;;;10.73;;
59828;SDS011;45708;51.848;107.620;2022-11-15T01:04:57;28.97;;;12.03;;
59828;SDS011;45708;51.848;107.620;2022-11-15T01:09:57;14.67;;;8.13;;
59828;SDS011;45708;51.848;107.620;2022-11-15T01:14:58;10.93;;;7.93;;
59828;SDS011;45708;51.848;107.620;2022-11-15T01:19:59;4.97;;;3.13;;
59828;SDS011;45708;51.848;107.620;2022-11-15T01:25:00;10.80;;;5.33;;
59828;SDS011;45708;51.848;107.620;2022-11-15T01:30:01;26.47;;;12.57;;
59828;SDS011;45708;51.848;107.620;2022-11-15T01:35:02;19.33;;;9.43;;
59828;SDS011;45708;51.848;107.620;2022-11-15T01:40:03;28.07;;;7.93;;
59828;SDS011;45708;51.848;107.620;2022-11-15T01:45:04;11.30;;;6.97;;
59828;SDS011;45708;51.848;107.620;2022-11-15T01:50:08;11.87;;;6.63;;
59828;SDS011;45708;51.848;107.620;2022-11-15T01:55:19;19.63;;;8.90;;
59828;SDS011;45708;51.848;107.620;2022-11-15T02:00:23;12.00;;;5.23;;
59828;SDS011;45708;51.848;107.620;2022-11-15T02:05:23;22.57;;;9.17;;
59828;SDS011;45708;51.848;107.620;2022-11-15T02:10:25;22.93;;;8.47;;
59828;SDS011;45708;51.848;107.620;2022-11-15T02:15:26;6.40;;;3.90;;
59828;SDS011;45708;51.848;107.620;2022-11-15T02:42:25;8.87;;;5.00;;
59828;SDS011;45708;51.848;107.620;2022-11-15T02:47:29;6.13;;;3.43;;
59828;SDS011;45708;51.848;107.620;2022-11-15T02:52:34;7.50;;;3.53;;
59828;SDS011;45708;51.848;107.620;2022-11-15T02:57:44;10.07;;;5.37;;
59828;SDS011;45708;51.848;107.620;2022-11-15T03:03:08;9.70;;;3.30;;
59828;SDS011;45708;51.848;107.620;2022-11-15T03:08:26;11.10;;;4.50;;
59828;SDS011;45708;51.848;107.620;2022-11-15T03:18:41;3.57;;;2.27;;
59828;SDS011;45708;51.848;107.620;2022-11-15T03:23:48;15.53;;;5.23;;
59828;SDS011;45708;51.848;107.620;2022-11-15T03:28:52;5.80;;;2.77;;
59828;SDS011;45708;51.848;107.620;2022-11-15T03:33:57;9.73;;;4.60;;
59828;SDS011;45708;51.848;107.620;2022-11-15T03:39:01;2.23;;;1.50;;
59828;SDS011;45708;51.848;107.620;2022-11-15T03:44:20;13.40;;;5.97;;
59828;SDS011;45708;51.848;107.620;2022-11-15T03:49:33;17.13;;;6.93;;
59828;SDS011;45708;51.848;107.620;2022-11-15T03:54:36;13.90;;;5.97;;
59828;SDS011;45708;51.848;107.620;2022-11-15T03:59:47;3.57;;;1.77;;
59828;SDS011;45708;51.848;107.620;2022-11-15T04:04:48;9.67;;;4.37;;
59828;SDS011;45708;51.848;107.620;2022-11-15T04:10:08;12.53;;;5.67;;
59828;SDS011;45708;51.848;107.620;2022-11-15T04:15:29;11.93;;;4.33;;
59828;SDS011;45708;51.848;107.620;2022-11-15T04:20:30;10.27;;;4.33;;
59828;SDS011;45708;51.848;107.620;2022-11-15T04:25:32;6.77;;;2.83;;
59828;SDS011;45708;51.848;107.620;2022-11-15T04:30:33;8.57;;;3.47;;
59828;SDS011;45708;51.848;107.620;2022-11-15T04:35:52;13.40;;;5.00;;
59828;SDS011;45708;51.848;107.620;2022-11-15T04:41:12;7.77;;;4.33;;
59828;SDS011;45708;51.848;107.620;2022-11-15T04:46:31;10.02;;;3.25;;
59828;SDS011;45708;51.848;107.620;2022-11-15T04:51:32;11.48;;;4.05;;
59828;SDS011;45708;51.848;107.620;2022-11-15T04:56:33;5.40;;;3.50;;
59828;SDS011;45708;51.848;107.620;2022-11-15T05:01:34;4.68;;;3.72;;
59828;SDS011;45708;51.848;107.620;2022-11-15T05:06:35;4.72;;;3.67;;
59828;SDS011;45708;51.848;107.620;2022-11-15T05:11:36;5.88;;;3.72;;
59828;SDS011;45708;51.848;107.620;2022-11-15T05:16:39;10.15;;;3.78;;
59828;SDS011;45708;51.848;107.620;2022-11-15T05:21:40;6.82;;;3.65;;
59828;SDS011;45708;51.848;107.620;2022-11-15T05:26:41;12.27;;;7.07;;
59828;SDS011;45708;51.848;107.620;2022-11-15T05:31:42;8.00;;;3.78;;
59828;SDS011;45708;51.848;107.620;2022-11-15T05:36:43;7.88;;;4.50;;
59828;SDS011;45708;51.848;107.620;2022-11-15T05:41:46;11.88;;;5.95;;
59828;SDS011;45708;51.848;107.620;2022-11-15T05:46:53;11.82;;;5.82;;
59828;SDS011;45708;51.848;107.620;2022-11-15T05:51:55;8.75;;;4.75;;
59828;SDS011;45708;51.848;107.620;2022-11-15T05:56:58;16.38;;;8.13;;
59828;SDS011;45708;51.848;107.620;2022-11-15T06:01:59;11.75;;;5.85;;
59828;SDS011;45708;51.848;107.620;2022-11-15T06:07:00;21.00;;;5.53;;
59828;SDS011;45708;51.848;107.620;2022-11-15T06:12:01;9.38;;;5.03;;
59828;SDS011;45708;51.848;107.620;2022-11-15T06:17:01;16.30;;;6.15;;
59828;SDS011;45708;51.848;107.620;2022-11-15T06:22:02;16.58;;;7.30;;
59828;SDS011;45708;51.848;107.620;2022-11-15T06:27:03;14.07;;;6.25;;
59828;SDS011;45708;51.848;107.620;2022-11-15T06:32:04;13.23;;;5.25;;
59828;SDS011;45708;51.848;107.620;2022-11-15T06:37:05;19.05;;;6.38;;
59828;SDS011;45708;51.848;107.620;2022-11-15T06:42:07;15.35;;;6.15;;
59828;SDS011;45708;51.848;107.620;2022-11-15T06:47:09;34.10;;;17.08;;
59828;SDS011;45708;51.848;107.620;2022-11-15T06:52:09;12.10;;;6.50;;
59828;SDS011;45708;51.848;107.620;2022-11-15T06:57:10;15.18;;;6.35;;
59828;SDS011;45708;51.848;107.620;2022-11-15T07:02:12;17.70;;;7.88;;
59828;SDS011;45708;51.848;107.620;2022-11-15T07:07:13;10.25;;;5.40;;
59828;SDS011;45708;51.848;107.620;2022-11-15T07:12:14;35.72;;;10.88;;
59828;SDS011;45708;51.848;107.620;2022-11-15T07:17:15;6.38;;;3.15;;
59828;SDS011;45708;51.848;107.620;2022-11-15T07:22:16;13.25;;;5.32;;
59828;SDS011;45708;51.848;107.620;2022-11-15T07:27:17;11.27;;;6.57;;
59828;SDS011;45708;51.848;107.620;2022-11-15T07:32:18;14.35;;;6.72;;
59828;SDS011;45708;51.848;107.620;2022-11-15T07:37:18;13.13;;;7.20;;
59828;SDS011;45708;51.848;107.620;2022-11-15T07:42:19;10.30;;;5.50;;
59828;SDS011;45708;51.848;107.620;2022-11-15T07:47:20;8.00;;;4.72;;
59828;SDS011;45708;51.848;107.620;2022-11-15T07:52:21;16.73;;;5.35;;
59828;SDS011;45708;51.848;107.620;2022-11-15T07:57:22;14.82;;;7.75;;
59828;SDS011;45708;51.848;107.620;2022-11-15T08:02:23;19.02;;;9.80;;
59828;SDS011;45708;51.848;107.620;2022-11-15T08:07:23;23.55;;;10.77;;
59828;SDS011;45708;51.848;107.620;2022-11-15T08:12:24;25.27;;;10.55;;
59828;SDS011;45708;51.848;107.620;2022-11-15T08:17:25;30.75;;;13.13;;
59828;SDS011;45708;51.848;107.620;2022-11-15T08:22:26;30.95;;;10.98;;
59828;SDS011;45708;51.848;107.620;2022-11-15T08:27:27;36.70;;;14.77;;
59828;SDS011;45708;51.848;107.620;2022-11-15T08:32:28;37.50;;;17.20;;
59828;SDS011;45708;51.848;107.620;2022-11-15T08:37:30;46.67;;;21.23;;
59828;SDS011;45708;51.848;107.620;2022-11-15T08:42:31;55.20;;;21.45;;
59828;SDS011;45708;51.848;107.620;2022-11-15T08:47:32;50.35;;;24.33;;
59828;SDS011;45708;51.848;107.620;2022-11-15T08:52:33;55.28;;;21.08;;
59828;SDS011;45708;51.848;107.620;2022-11-15T08:57:34;60.95;;;25.55;;
59828;SDS011;45708;51.848;107.620;2022-11-15T09:02:37;55.67;;;24.35;;
59828;SDS011;45708;51.848;107.620;2022-11-15T09:07:38;68.03;;;29.02;;
59828;SDS011;45708;51.848;107.620;2022-11-15T09:12:39;98.22;;;36.38;;
59828;SDS011;45708;51.848;107.620;2022-11-15T09:17:40;78.75;;;34.88;;
59828;SDS011;45708;51.848;107.620;2022-11-15T09:22:41;101.60;;;41.30;;
59828;SDS011;45708;51.848;107.620;2022-11-15T09:27:42;78.88;;;36.15;;
59828;SDS011;45708;51.848;107.620;2022-11-15T09:32:43;91.55;;;36.85;;
59828;SDS011;45708;51.848;107.620;2022-11-15T09:37:44;79.60;;;35.30;;
59828;SDS011;45708;51.848;107.620;2022-11-15T09:53:14;77.43;;;29.30;;
59828;SDS011;45708;51.848;107.620;2022-11-15T10:03:37;45.43;;;17.40;;
59828;SDS011;45708;51.848;107.620;2022-11-15T10:08:46;156.00;;;62.67;;
59828;SDS011;45708;51.848;107.620;2022-11-15T10:19:39;230.53;;;97.00;;
59828;SDS011;45708;51.848;107.620;2022-11-15T10:24:42;189.17;;;81.70;;
59828;SDS011;45708;51.848;107.620;2022-11-15T10:29:50;230.10;;;88.57;;
59828;SDS011;45708;51.848;107.620;2022-11-15T10:34:51;213.87;;;87.83;;
59828;SDS011;45708;51.848;107.620;2022-11-15T10:40:04;212.40;;;93.00;;
59828;SDS011;45708;51.848;107.620;2022-11-15T10:45:39;217.60;;;94.97;;
59828;SDS011;45708;51.848;107.620;2022-11-15T10:50:34;246.67;;;111.40;;
59828;SDS011;45708;51.848;107.620;2022-11-15T10:55:35;297.10;;;129.07;;
59828;SDS011;45708;51.848;107.620;2022-11-15T11:00:47;260.50;;;114.00;;
59828;SDS011;45708;51.848;107.620;2022-11-15T11:05:48;237.27;;;89.90;;
59828;SDS011;45708;51.848;107.620;2022-11-15T11:11:03;240.50;;;95.93;;
59828;SDS011;45708;51.848;107.620;2022-11-15T11:21:18;268.50;;;106.10;;
59828;SDS011;45708;51.848;107.620;2022-11-15T11:26:42;206.03;;;84.77;;
59828;SDS011;45708;51.848;107.620;2022-11-15T11:32:08;175.37;;;74.90;;
59828;SDS011;45708;51.848;107.620;2022-11-15T11:58:35;166.17;;;64.17;;
59828;SDS011;45708;51.848;107.620;2022-11-15T12:03:45;146.07;;;62.10;;
59828;SDS011;45708;51.848;107.620;2022-11-15T12:09:07;123.17;;;52.67;;
59828;SDS011;45708;51.848;107.620;2022-11-15T12:19:39;144.07;;;65.33;;
59828;SDS011;45708;51.848;107.620;2022-11-15T12:24:45;151.73;;;64.73;;
59828;SDS011;45708;51.848;107.620;2022-11-15T12:29:57;131.70;;;60.03;;
59828;SDS011;45708;51.848;107.620;2022-11-15T12:35:02;110.57;;;51.10;;
59828;SDS011;45708;51.848;107.620;2022-11-15T12:40:19;102.07;;;45.97;;
59828;SDS011;45708;51.848;107.620;2022-11-15T13:06:40;193.17;;;75.37;;
59828;SDS011;45708;51.848;107.620;2022-11-15T13:11:51;204.77;;;78.77;;
59828;SDS011;45708;51.848;107.620;2022-11-15T13:16:58;186.30;;;73.93;;
59828;SDS011;45708;51.848;107.620;2022-11-15T13:22:00;179.73;;;66.73;;
59828;SDS011;45708;51.848;107.620;2022-11-15T13:27:15;165.13;;;62.93;;
59828;SDS011;45708;51.848;107.620;2022-11-15T13:32:19;125.33;;;45.23;;
59828;SDS011;45708;51.848;107.620;2022-11-15T13:42:22;125.83;;;49.37;;
59828;SDS011;45708;51.848;107.620;2022-11-15T13:47:29;114.27;;;43.93;;
59828;SDS011;45708;51.848;107.620;2022-11-15T13:52:31;99.97;;;39.13;;
59828;SDS011;45708;51.848;107.620;2022-11-15T13:57:43;122.10;;;43.33;;
59828;SDS011;45708;51.848;107.620;2022-11-15T14:02:47;82.80;;;30.93;;
59828;SDS011;45708;51.848;107.620;2022-11-15T14:12:59;131.77;;;46.60;;
59828;SDS011;45708;51.848;107.620;2022-11-15T14:18:01;109.67;;;38.33;;
59828;SDS011;45708;51.848;107.620;2022-11-15T14:23:03;102.93;;;41.20;;
59828;SDS011;45708;51.848;107.620;2022-11-15T14:33:27;104.07;;;37.43;;
59828;SDS011;45708;51.848;107.620;2022-11-15T14:38:30;69.37;;;27.87;;
59828;SDS011;45708;51.848;107.620;2022-11-15T14:43:31;83.50;;;32.07;;
59828;SDS011;45708;51.848;107.620;2022-11-15T14:48:32;76.70;;;31.73;;
59828;SDS011;45708;51.848;107.620;2022-11-15T14:53:33;117.73;;;45.57;;
59828;SDS011;45708;51.848;107.620;2022-11-15T14:58:34;204.43;;;78.70;;
59828;SDS011;45708;51.848;107.620;2022-11-15T15:03:35;183.30;;;77.17;;
59828;SDS011;45708;51.848;107.620;2022-11-15T15:08:36;217.70;;;87.43;;
59828;SDS011;45708;51.848;107.620;2022-11-15T15:13:36;179.87;;;68.17;;
59828;SDS011;45708;51.848;107.620;2022-11-15T15:18:37;158.27;;;60.90;;
59828;SDS011;45708;51.848;107.620;2022-11-15T15:23:38;88.37;;;41.30;;
59828;SDS011;45708;51.848;107.620;2022-11-15T15:28:39;144.93;;;53.23;;
59828;SDS011;45708;51.848;107.620;2022-11-15T15:33:40;117.20;;;42.53;;
59828;SDS011;45708;51.848;107.620;2022-11-15T15:38:41;63.50;;;27.00;;
59828;SDS011;45708;51.848;107.620;2022-11-15T15:43:42;79.77;;;31.77;;
59828;SDS011;45708;51.848;107.620;2022-11-15T15:48:43;72.47;;;29.07;;
59828;SDS011;45708;51.848;107.620;2022-11-15T15:53:45;69.73;;;28.13;;
59828;SDS011;45708;51.848;107.620;2022-11-15T15:58:46;66.17;;;27.53;;
59828;SDS011;45708;51.848;107.620;2022-11-15T16:03:47;67.30;;;28.10;;
59828;SDS011;45708;51.848;107.620;2022-11-15T16:08:48;161.00;;;59.10;;
59828;SDS011;45708;51.848;107.620;2022-11-15T16:13:49;209.17;;;76.60;;
59828;SDS011;45708;51.848;107.620;2022-11-15T16:18:49;168.57;;;65.33;;
59828;SDS011;45708;51.848;107.620;2022-11-15T16:23:50;63.50;;;23.53;;
59828;SDS011;45708;51.848;107.620;2022-11-15T16:28:51;166.93;;;65.80;;
59828;SDS011;45708;51.848;107.620;2022-11-15T16:33:53;165.23;;;57.77;;
59828;SDS011;45708;51.848;107.620;2022-11-15T16:38:54;142.17;;;58.60;;
59828;SDS011;45708;51.848;107.620;2022-11-15T16:43:54;129.63;;;48.93;;
59828;SDS011;45708;51.848;107.620;2022-11-15T16:48:56;83.00;;;34.43;;
59828;SDS011;45708;51.848;107.620;2022-11-15T16:53:56;73.63;;;28.37;;
59828;SDS011;45708;51.848;107.620;2022-11-15T16:58:58;94.03;;;39.60;;
59828;SDS011;45708;51.848;107.620;2022-11-15T17:04:00;89.37;;;35.13;;
59828;SDS011;45708;51.848;107.620;2022-11-15T17:09:02;85.87;;;31.03;;
59828;SDS011;45708;51.848;107.620;2022-11-15T17:14:03;74.83;;;34.80;;
59828;SDS011;45708;51.848;107.620;2022-11-15T17:19:03;87.97;;;34.37;;
59828;SDS011;45708;51.848;107.620;2022-11-15T17:24:04;63.73;;;30.83;;
59828;SDS011;45708;51.848;107.620;2022-11-15T17:29:05;83.80;;;33.17;;
59828;SDS011;45708;51.848;107.620;2022-11-15T17:34:06;47.57;;;24.07;;
59828;SDS011;45708;51.848;107.620;2022-11-15T17:39:07;66.30;;;26.13;;
59828;SDS011;45708;51.848;107.620;2022-11-15T17:44:08;53.63;;;23.53;;
59828;SDS011;45708;51.848;107.620;2022-11-15T17:49:09;18.27;;;9.87;;
59828;SDS011;45708;51.848;107.620;2022-11-15T17:54:10;66.30;;;31.67;;
59828;SDS011;45708;51.848;107.620;2022-11-15T17:59:10;26.00;;;15.20;;
59828;SDS011;45708;51.848;107.620;2022-11-15T18:04:11;77.73;;;31.77;;
59828;SDS011;45708;51.848;107.620;2022-11-15T18:09:12;74.33;;;33.33;;
59828;SDS011;45708;51.848;107.620;2022-11-15T18:14:13;66.70;;;27.23;;
59828;SDS011;45708;51.848;107.620;2022-11-15T18:19:14;65.63;;;30.47;;
59828;SDS011;45708;51.848;107.620;2022-11-15T18:24:15;62.93;;;22.70;;
59828;SDS011;45708;51.848;107.620;2022-11-15T18:29:16;54.30;;;26.33;;
59828;SDS011;45708;51.848;107.620;2022-11-15T18:34:18;56.70;;;20.77;;
59828;SDS011;45708;51.848;107.620;2022-11-15T18:39:20;94.77;;;35.40;;
59828;SDS011;45708;51.848;107.620;2022-11-15T18:44:20;94.10;;;41.47;;
59828;SDS011;45708;51.848;107.620;2022-11-15T18:49:22;112.17;;;43.67;;
59828;SDS011;45708;51.848;107.620;2022-11-15T18:54:23;62.70;;;28.53;;
59828;SDS011;45708;51.848;107.620;2022-11-15T18:59:24;61.70;;;25.67;;
59828;SDS011;45708;51.848;107.620;2022-11-15T19:04:25;59.40;;;23.57;;
59828;SDS011;45708;51.848;107.620;2022-11-15T19:09:26;52.00;;;22.70;;
59828;SDS011;45708;51.848;107.620;2022-11-15T19:14:26;62.77;;;22.43;;
59828;SDS011;45708;51.848;107.620;2022-11-15T19:19:27;71.07;;;31.03;;
59828;SDS011;45708;51.848;107.620;2022-11-15T19:24:28;36.47;;;16.63;;
59828;SDS011;45708;51.848;107.620;2022-11-15T19:29:29;54.77;;;26.43;;
59828;SDS011;45708;51.848;107.620;2022-11-15T19:34:30;36.33;;;15.77;;
59828;SDS011;45708;51.848;107.620;2022-11-15T19:39:31;29.17;;;10.90;;
59828;SDS011;45708;51.848;107.620;2022-11-15T19:44:32;33.17;;;15.57;;
59828;SDS011;45708;51.848;107.620;2022-11-15T19:49:32;38.33;;;18.13;;
59828;SDS011;45708;51.848;107.620;2022-11-15T19:54:33;28.03;;;13.73;;
59828;SDS011;45708;51.848;107.620;2022-11-15T19:59:34;19.67;;;10.87;;
59828;SDS011;45708;51.848;107.620;2022-11-15T20:04:35;37.27;;;16.43;;
59828;SDS011;45708;51.848;107.620;2022-11-15T20:09:36;45.63;;;19.77;;
59828;SDS011;45708;51.848;107.620;2022-11-15T20:14:36;28.73;;;16.60;;
59828;SDS011;45708;51.848;107.620;2022-11-15T20:19:37;43.50;;;17.43;;
59828;SDS011;45708;51.848;107.620;2022-11-15T20:24:38;34.90;;;16.87;;
59828;SDS011;45708;51.848;107.620;2022-11-15T20:29:39;56.73;;;24.00;;
59828;SDS011;45708;51.848;107.620;2022-11-15T20:34:40;23.13;;;13.77;;
59828;SDS011;45708;51.848;107.620;2022-11-15T20:39:40;33.47;;;13.57;;
59828;SDS011;45708;51.848;107.620;2022-11-15T20:44:41;45.60;;;22.23;;
59828;SDS011;45708;51.848;107.620;2022-11-15T20:49:42;13.70;;;10.10;;
59828;SDS011;45708;51.848;107.620;2022-11-15T20:54:43;25.53;;;13.23;;
59828;SDS011;45708;51.848;107.620;2022-11-15T20:59:44;33.13;;;17.13;;
59828;SDS011;45708;51.848;107.620;2022-11-15T21:04:45;62.70;;;26.40;;
59828;SDS011;45708;51.848;107.620;2022-11-15T21:09:46;76.37;;;27.23;;
59828;SDS011;45708;51.848;107.620;2022-11-15T21:14:46;47.63;;;19.93;;
59828;SDS011;45708;51.848;107.620;2022-11-15T21:19:47;53.90;;;24.70;;
59828;SDS011;45708;51.848;107.620;2022-11-15T21:24:48;20.27;;;6.90;;
59828;SDS011;45708;51.848;107.620;2022-11-15T21:29:49;15.70;;;10.30;;
59828;SDS011;45708;51.848;107.620;2022-11-15T21:34:50;10.13;;;7.53;;
59828;SDS011;45708;51.848;107.620;2022-11-15T21:39:51;50.07;;;19.60;;
59828;SDS011;45708;51.848;107.620;2022-11-15T21:44:52;32.37;;;17.53;;
59828;SDS011;45708;51.848;107.620;2022-11-15T21:49:52;11.33;;;7.60;;
59828;SDS011;45708;51.848;107.620;2022-11-15T21:54:53;22.67;;;12.00;;
59828;SDS011;45708;51.848;107.620;2022-11-15T21:59:54;10.07;;;5.57;;
59828;SDS011;45708;51.848;107.620;2022-11-15T22:04:55;49.93;;;24.80;;
59828;SDS011;45708;51.848;107.620;2022-11-15T22:09:56;8.27;;;7.37;;
59828;SDS011;45708;51.848;107.620;2022-11-15T22:14:57;22.17;;;10.33;;
59828;SDS011;45708;51.848;107.620;2022-11-15T22:19:58;17.93;;;9.30;;
59828;SDS011;45708;51.848;107.620;2022-11-15T22:24:59;27.07;;;14.60;;
59828;SDS011;45708;51.848;107.620;2022-11-15T22:29:59;13.13;;;7.53;;
59828;SDS011;45708;51.848;107.620;2022-11-15T22:35:00;17.13;;;9.23;;
59828;SDS011;45708;51.848;107.620;2022-11-15T22:40:01;30.77;;;12.57;;
59828;SDS011;45708;51.848;107.620;2022-11-15T22:45:02;41.90;;;22.00;;
59828;SDS011;45708;51.848;107.620;2022-11-15T22:50:03;28.13;;;14.23;;
59828;SDS011;45708;51.848;107.620;2022-11-15T22:55:05;33.70;;;14.30;;
59828;SDS011;45708;51.848;107.620;2022-11-15T23:00:07;23.00;;;12.03;;
59828;SDS011;45708;51.848;107.620;2022-11-15T23:05:12;21.67;;;9.30;;
59828;SDS011;45708;51.848;107.620;2022-11-15T23:10:13;27.83;;;11.77;;
59828;SDS011;45708;51.848;107.620;2022-11-15T23:15:14;35.77;;;15.80;;
59828;SDS011;45708;51.848;107.620;2022-11-15T23:20:16;29.37;;;14.43;;
59828;SDS011;45708;51.848;107.620;2022-11-15T23:25:17;17.90;;;9.00;;
59828;SDS011;45708;51.848;107.620;2022-11-15T23:30:18;9.20;;;7.37;;
59828;SDS011;45708;51.848;107.620;2022-11-15T23:35:19;32.40;;;15.60;;
59828;SDS011;45708;51.848;107.620;2022-11-15T23:40:20;17.57;;;10.60;;
59828;SDS011;45708;51.848;107.620;2022-11-15T23:45:20;11.17;;;6.97;;
59828;SDS011;45708;51.848;107.620;2022-11-15T23:50:21;5.27;;;2.50;;
59828;SDS011;45708;51.848;107.620;2022-11-15T23:55:22;20.33;;;9.10;;
